createdAt,value
2019-01-09T00:00:04.855Z,20.62
2019-01-09T00:02:31.718Z,21.77
2019-01-09T00:05:03.434Z,24.32
2019-01-09T00:07:31.157Z,19.60
2019-01-09T00:09:58.028Z,19.00
2019-01-09T00:12:25.926Z,22.32
2019-01-09T00:14:53.100Z,18.02
2019-01-09T00:17:20.233Z,18.60
2019-01-09T00:19:49.348Z,19.40
2019-01-09T00:22:15.820Z,20.95
2019-01-09T00:24:42.709Z,20.08
2019-01-09T00:27:09.976Z,19.98
2019-01-09T00:29:38.831Z,20.60
2019-01-09T00:32:06.875Z,17.30
2019-01-09T00:34:37.793Z,16.70
2019-01-09T00:37:02.344Z,15.08
2019-01-09T00:39:31.655Z,17.45
2019-01-09T00:41:59.706Z,15.90
2019-01-09T00:44:27.021Z,17.12
2019-01-09T00:46:56.772Z,17.40
2019-01-09T00:49:23.834Z,18.55
2019-01-09T00:51:58.154Z,20.43
2019-01-09T00:54:24.814Z,17.35
2019-01-09T00:56:51.650Z,17.87
2019-01-09T00:59:18.450Z,16.82
2019-01-09T01:01:45.407Z,17.73
2019-01-09T01:04:12.583Z,16.20
2019-01-09T01:06:40.673Z,16.82
2019-01-09T01:09:07.747Z,15.23
2019-01-09T01:11:34.771Z,14.87
2019-01-09T01:14:01.778Z,13.80
2019-01-09T01:16:28.956Z,13.03
2019-01-09T01:18:56.296Z,13.55
2019-01-09T01:21:23.690Z,13.48
2019-01-09T01:23:50.477Z,12.55
2019-01-09T01:26:17.544Z,12.33
2019-01-09T01:28:44.196Z,12.10
2019-01-09T01:31:11.271Z,11.93
2019-01-09T01:33:38.027Z,10.82
2019-01-09T01:36:05.023Z,11.20
2019-01-09T01:38:31.868Z,10.85
2019-01-09T01:40:58.515Z,10.72
2019-01-09T01:43:25.251Z,9.48
2019-01-09T01:45:51.890Z,8.95
2019-01-09T01:48:18.631Z,9.35
2019-01-09T01:50:45.136Z,9.95
2019-01-09T01:53:11.777Z,9.40
2019-01-09T01:55:38.292Z,9.15
2019-01-09T01:58:04.912Z,11.95
2019-01-09T02:00:31.494Z,10.32
2019-01-09T02:02:58.061Z,9.30
2019-01-09T02:05:24.932Z,11.57
2019-01-09T02:07:51.784Z,10.23
2019-01-09T02:10:18.346Z,10.70
2019-01-09T02:12:45.064Z,9.88
2019-01-09T02:15:11.642Z,11.03
2019-01-09T02:17:38.315Z,11.00
2019-01-09T02:20:07.762Z,9.95
2019-01-09T02:22:34.511Z,11.75
2019-01-09T02:25:01.171Z,11.50
2019-01-09T02:27:28.334Z,10.63
2019-01-09T02:29:55.221Z,9.73
2019-01-09T02:32:22.485Z,10.38
2019-01-09T02:34:49.447Z,10.98
2019-01-09T02:37:16.592Z,9.55
2019-01-09T02:39:47.792Z,14.87
2019-01-09T02:42:14.946Z,13.90
2019-01-09T02:44:41.817Z,15.00
2019-01-09T02:47:09.106Z,13.93
2019-01-09T02:49:35.980Z,14.98
2019-01-09T02:52:02.796Z,14.68
2019-01-09T02:54:29.590Z,15.23
2019-01-09T02:56:56.888Z,14.80
2019-01-09T02:59:23.526Z,15.70
2019-01-09T03:01:51.711Z,14.70
2019-01-09T03:04:18.476Z,16.05
2019-01-09T03:06:45.432Z,14.53
2019-01-09T03:09:12.319Z,15.78
2019-01-09T03:11:39.277Z,14.15
2019-01-09T03:14:08.356Z,15.25
2019-01-09T03:16:37.125Z,14.05
2019-01-09T03:19:03.854Z,14.78
2019-01-09T03:21:30.931Z,14.80
2019-01-09T03:23:58.301Z,15.85
2019-01-09T03:26:25.058Z,14.47
2019-01-09T03:28:55.419Z,15.38
2019-01-09T03:31:22.995Z,15.72
2019-01-09T03:33:50.157Z,14.63
2019-01-09T03:36:18.260Z,14.60
2019-01-09T03:38:45.234Z,15.05
2019-01-09T03:41:12.191Z,14.60
2019-01-09T03:43:39.545Z,16.90
2019-01-09T03:46:06.537Z,15.93
2019-01-09T03:48:33.942Z,15.15
2019-01-09T03:51:01.082Z,17.87
2019-01-09T03:53:40.050Z,14.50
2019-01-09T03:56:06.978Z,13.48
2019-01-09T03:58:34.155Z,13.32
2019-01-09T04:01:01.096Z,15.55
2019-01-09T04:03:35.866Z,13.00
2019-01-09T04:06:02.516Z,15.53
2019-01-09T04:08:29.693Z,14.43
2019-01-09T04:10:56.764Z,15.10
2019-01-09T04:13:23.730Z,15.90
2019-01-09T04:15:50.905Z,12.82
2019-01-09T04:18:17.974Z,16.05
2019-01-09T04:20:44.931Z,14.93
2019-01-09T04:23:11.997Z,14.40
2019-01-09T04:25:40.635Z,14.80
2019-01-09T04:28:07.485Z,13.35
2019-01-09T04:30:34.338Z,13.48
2019-01-09T04:33:02.459Z,14.93
2019-01-09T04:35:29.295Z,12.90
2019-01-09T04:40:30.345Z,13.95
2019-01-09T04:42:58.680Z,14.13
2019-01-09T04:45:25.693Z,13.70
2019-01-09T04:47:53.023Z,12.93
2019-01-09T04:50:33.907Z,12.33
2019-01-09T04:53:01.083Z,12.33
2019-01-09T04:55:30.797Z,12.55
2019-01-09T04:57:57.869Z,12.70
2019-01-09T05:00:24.544Z,11.33
2019-01-09T05:02:51.814Z,11.48
2019-01-09T05:05:21.240Z,11.85
2019-01-09T05:07:48.935Z,12.07
2019-01-09T05:10:15.770Z,13.28
2019-01-09T05:12:43.016Z,14.55
2019-01-09T05:15:15.955Z,16.50
2019-01-09T05:17:42.915Z,14.73
2019-01-09T05:20:09.975Z,14.20
2019-01-09T05:22:36.855Z,14.65
2019-01-09T05:25:04.118Z,14.80
2019-01-09T05:27:31.192Z,15.20
2019-01-09T05:29:58.175Z,14.15
2019-01-09T05:32:25.024Z,16.65
2019-01-09T05:34:52.394Z,16.70
2019-01-09T05:37:34.302Z,17.57
2019-01-09T05:40:03.952Z,16.07
2019-01-09T05:42:31.091Z,14.87
2019-01-09T05:44:58.036Z,14.43
2019-01-09T05:47:24.835Z,15.35
2019-01-09T05:49:52.004Z,14.20
2019-01-09T05:52:18.753Z,14.63
2019-01-09T05:54:46.146Z,11.95
2019-01-09T05:57:12.894Z,13.05
2019-01-09T05:59:40.067Z,11.83
2019-01-09T06:02:07.154Z,12.90
2019-01-09T06:04:34.102Z,12.05
2019-01-09T06:07:01.080Z,11.38
2019-01-09T06:09:30.051Z,13.55
2019-01-09T06:11:58.535Z,13.25
2019-01-09T06:14:39.683Z,15.08
2019-01-09T06:17:08.782Z,14.60
2019-01-09T06:19:36.173Z,13.58
2019-01-09T06:22:04.915Z,14.15
2019-01-09T06:24:31.990Z,14.10
2019-01-09T06:27:00.850Z,14.38
2019-01-09T06:29:28.066Z,14.68
2019-01-09T06:31:54.981Z,15.03
2019-01-09T06:34:22.151Z,14.38
2019-01-09T06:36:49.035Z,17.48
2019-01-09T06:39:25.085Z,16.52
2019-01-09T06:41:52.072Z,17.65
2019-01-09T06:44:19.239Z,17.07
2019-01-09T06:46:46.311Z,17.42
2019-01-09T06:49:13.774Z,18.00
2019-01-09T06:51:46.417Z,16.57
2019-01-09T06:57:03.392Z,16.62
2019-01-09T07:02:16.468Z,21.45
2019-01-09T07:10:00.964Z,19.57
2019-01-09T07:12:30.549Z,18.52
2019-01-09T07:14:57.597Z,18.80
2019-01-09T07:17:24.463Z,18.82
2019-01-09T07:19:51.630Z,19.37
2019-01-09T07:22:18.507Z,19.62
2019-01-09T07:27:38.834Z,19.00
2019-01-09T07:30:05.982Z,17.65
2019-01-09T07:32:32.949Z,23.92
2019-01-09T07:34:59.916Z,25.10
2019-01-09T07:37:29.291Z,23.57
2019-01-09T07:40:00.503Z,23.87
2019-01-09T07:42:27.155Z,25.10
2019-01-09T07:44:54.545Z,27.65
2019-01-09T07:47:21.509Z,26.95
2019-01-09T07:49:48.271Z,20.00
2019-01-09T07:52:14.773Z,20.52
2019-01-09T07:54:41.539Z,21.20
2019-01-09T07:57:08.121Z,23.32
2019-01-09T07:59:34.832Z,29.92
2019-01-09T08:02:01.404Z,21.20
2019-01-09T08:04:27.913Z,23.02
2019-01-09T08:06:54.456Z,20.43
2019-01-09T08:09:21.067Z,17.70
2019-01-09T08:11:47.536Z,18.85
2019-01-09T08:14:14.262Z,20.00
2019-01-09T08:16:40.812Z,17.20
2019-01-09T08:19:07.471Z,19.52
2019-01-09T08:21:34.130Z,25.68
2019-01-09T08:24:00.719Z,23.00
2019-01-09T08:26:27.214Z,23.10
2019-01-09T08:28:53.755Z,28.57
2019-01-09T08:31:20.286Z,68.35
2019-01-09T08:33:46.872Z,65.22
2019-01-09T08:36:13.550Z,67.72
2019-01-09T08:38:40.090Z,31.80
2019-01-09T08:41:06.750Z,24.75
2019-01-09T08:43:33.433Z,25.23
2019-01-09T08:46:02.375Z,25.77
2019-01-09T08:48:28.936Z,26.02
2019-01-09T08:50:55.860Z,29.87
2019-01-09T08:53:22.664Z,25.68
2019-01-09T08:55:49.542Z,23.52
2019-01-09T08:58:16.095Z,27.00
2019-01-09T09:00:43.169Z,25.15
2019-01-09T09:03:10.042Z,25.25
2019-01-09T09:05:36.998Z,26.62
2019-01-09T09:08:11.950Z,26.05
2019-01-09T09:10:32.388Z,25.45
2019-01-09T09:12:59.421Z,22.80
2019-01-09T09:15:26.703Z,23.87
2019-01-09T09:18:08.487Z,22.87
2019-01-09T09:20:37.336Z,22.52
2019-01-09T09:23:04.078Z,22.27
2019-01-09T09:25:31.033Z,21.50
2019-01-09T09:27:58.011Z,21.37
2019-01-09T09:30:25.072Z,20.40
2019-01-09T09:32:51.734Z,19.98
2019-01-09T09:35:18.878Z,23.40
2019-01-09T09:37:46.628Z,20.43
2019-01-09T09:40:13.636Z,23.40
2019-01-09T09:42:40.320Z,22.20
2019-01-09T09:45:07.176Z,21.97
2019-01-09T09:47:33.950Z,22.73
2019-01-09T09:50:00.607Z,23.38
2019-01-09T09:52:27.287Z,24.12
2019-01-09T09:54:54.440Z,25.10
2019-01-09T09:57:20.994Z,22.60
2019-01-09T09:59:48.310Z,26.45
2019-01-09T10:02:15.181Z,21.65
2019-01-09T10:04:45.161Z,22.00
2019-01-09T10:07:11.941Z,21.57
2019-01-09T10:09:38.820Z,19.57
2019-01-09T10:12:05.460Z,19.48
2019-01-09T10:14:32.177Z,19.77
2019-01-09T10:16:58.974Z,17.52
2019-01-09T10:19:25.726Z,17.00
2019-01-09T10:21:52.609Z,18.67
2019-01-09T10:24:19.360Z,19.92
2019-01-09T10:26:46.450Z,16.62
2019-01-09T10:29:13.108Z,16.50
2019-01-09T10:31:40.276Z,20.72
2019-01-09T10:34:07.240Z,19.90
2019-01-09T10:36:34.097Z,20.80
2019-01-09T10:39:00.754Z,21.07
2019-01-09T10:41:27.582Z,22.93
2019-01-09T10:43:54.472Z,24.15
2019-01-09T10:46:21.564Z,22.67
2019-01-09T10:48:50.265Z,20.70
2019-01-09T10:51:17.025Z,20.80
2019-01-09T10:53:43.899Z,20.57
2019-01-09T10:56:10.646Z,18.48
2019-01-09T10:58:37.213Z,19.27
2019-01-09T11:01:04.086Z,17.37
2019-01-09T11:03:30.722Z,13.85
2019-01-09T11:05:57.403Z,17.23
2019-01-09T11:08:24.179Z,15.32
2019-01-09T11:10:52.819Z,14.83
2019-01-09T11:13:19.215Z,15.45
2019-01-09T11:15:46.294Z,13.85
2019-01-09T11:18:13.041Z,13.78
2019-01-09T11:20:41.280Z,13.98
2019-01-09T11:23:08.095Z,11.90
2019-01-09T11:25:35.094Z,13.30
2019-01-09T11:28:01.855Z,14.40
2019-01-09T11:30:28.714Z,14.20
2019-01-09T11:32:55.481Z,14.63
2019-01-09T11:35:22.537Z,13.60
2019-01-09T11:37:49.487Z,12.70
2019-01-09T11:40:16.278Z,16.32
2019-01-09T11:42:43.340Z,16.55
2019-01-09T11:45:10.141Z,15.75
2019-01-09T11:47:36.766Z,16.85
2019-01-09T11:50:03.291Z,16.87
2019-01-09T11:52:29.976Z,17.07
2019-01-09T11:54:56.999Z,14.65
2019-01-09T11:57:23.697Z,12.18
2019-01-09T11:59:50.344Z,14.65
2019-01-09T12:02:22.055Z,14.10
2019-01-09T12:04:45.750Z,14.00
2019-01-09T12:07:12.849Z,15.32
2019-01-09T12:09:39.472Z,12.30
2019-01-09T12:12:06.141Z,14.05
2019-01-09T12:14:32.800Z,13.10
2019-01-09T12:16:59.530Z,13.35
2019-01-09T12:19:26.045Z,13.35
2019-01-09T12:21:52.619Z,12.98
2019-01-09T12:24:19.480Z,13.68
2019-01-09T12:26:46.497Z,12.58
2019-01-09T12:29:13.660Z,12.93
2019-01-09T12:31:40.922Z,12.80
2019-01-09T12:34:07.583Z,11.50
2019-01-09T12:36:34.500Z,10.72
2019-01-09T12:39:03.107Z,12.05
2019-01-09T12:41:29.939Z,10.80
2019-01-09T12:43:56.603Z,10.88
2019-01-09T12:46:23.538Z,10.32
2019-01-09T12:48:50.320Z,9.35
2019-01-09T12:51:17.305Z,10.23
2019-01-09T12:53:44.049Z,9.13
2019-01-09T12:56:10.724Z,9.15
2019-01-09T12:58:37.484Z,9.08
2019-01-09T13:01:05.406Z,9.85
2019-01-09T13:03:32.127Z,9.25
2019-01-09T13:05:58.900Z,10.50
2019-01-09T13:08:25.668Z,9.38
2019-01-09T13:10:53.745Z,10.13
2019-01-09T13:13:20.587Z,10.70
2019-01-09T13:15:47.461Z,10.43
2019-01-09T13:18:14.136Z,10.80
2019-01-09T13:20:40.902Z,13.28
2019-01-09T13:23:09.663Z,13.88
2019-01-09T13:25:36.162Z,11.35
2019-01-09T13:28:03.022Z,10.45
2019-01-09T13:30:29.703Z,11.45
2019-01-09T13:32:56.342Z,10.25
2019-01-09T13:35:23.115Z,11.20
2019-01-09T13:37:49.719Z,13.35
2019-01-09T13:40:16.262Z,10.45
2019-01-09T13:42:43.081Z,11.40
2019-01-09T13:45:09.679Z,11.33
2019-01-09T13:47:36.580Z,11.70
2019-01-09T13:50:03.278Z,9.88
2019-01-09T13:52:30.158Z,10.48
2019-01-09T13:54:56.801Z,11.33
2019-01-09T13:57:24.165Z,10.55
2019-01-09T13:59:50.858Z,8.00
2019-01-09T14:02:17.498Z,8.33
2019-01-09T14:04:44.262Z,7.78
2019-01-09T14:07:10.978Z,8.60
2019-01-09T14:09:39.582Z,9.15
2019-01-09T14:12:06.058Z,8.88
2019-01-09T14:14:32.738Z,9.88
2019-01-09T14:16:59.458Z,8.00
2019-01-09T14:19:25.963Z,10.63
2019-01-09T14:21:52.943Z,33.35
2019-01-09T14:24:19.684Z,24.35
2019-01-09T14:26:46.388Z,30.52
2019-01-09T14:29:13.020Z,31.02
2019-01-09T14:31:39.840Z,34.58
2019-01-09T14:34:06.538Z,34.60
2019-01-09T14:36:33.417Z,30.30
2019-01-09T14:38:59.980Z,18.12
2019-01-09T14:41:26.725Z,18.25
2019-01-09T14:43:53.390Z,17.87
2019-01-09T14:46:20.263Z,14.43
2019-01-09T14:48:47.122Z,12.33
2019-01-09T14:51:13.801Z,11.08
2019-01-09T14:53:40.641Z,11.70
2019-01-09T14:56:07.699Z,12.40
2019-01-09T14:58:34.602Z,11.83
2019-01-09T15:01:03.321Z,11.28
2019-01-09T15:03:30.245Z,19.48
2019-01-09T15:05:56.855Z,22.85
2019-01-09T15:08:23.990Z,20.37
2019-01-09T15:10:53.810Z,23.38
2019-01-09T15:13:20.670Z,27.77
2019-01-09T15:15:47.429Z,27.62
2019-01-09T15:18:14.409Z,25.65
2019-01-09T15:20:40.957Z,22.77
2019-01-09T15:23:07.837Z,21.45
2019-01-09T15:25:34.892Z,27.22
2019-01-09T15:28:01.411Z,23.00
2019-01-09T15:30:28.191Z,19.50
2019-01-09T15:32:54.989Z,17.23
2019-01-09T15:35:21.640Z,11.33
2019-01-09T15:37:48.182Z,12.07
2019-01-09T15:40:14.861Z,10.72
2019-01-09T15:42:41.630Z,12.50
2019-01-09T15:45:08.341Z,10.45
2019-01-09T15:47:35.040Z,10.58
2019-01-09T15:50:01.980Z,9.70
2019-01-09T15:52:28.782Z,11.45
2019-01-09T15:54:55.742Z,11.45
2019-01-09T15:57:22.706Z,16.05
2019-01-09T15:59:49.473Z,16.02
2019-01-09T16:02:16.261Z,18.95
2019-01-09T16:04:43.000Z,18.00
2019-01-09T16:07:10.199Z,18.35
2019-01-09T16:09:37.023Z,17.90
2019-01-09T16:12:03.691Z,14.83
2019-01-09T16:14:30.346Z,11.80
2019-01-09T16:16:57.317Z,13.48
2019-01-09T16:19:24.081Z,13.08
2019-01-09T16:21:51.038Z,14.25
2019-01-09T16:24:18.117Z,12.68
2019-01-09T16:26:44.877Z,13.10
2019-01-09T16:29:11.538Z,41.90
2019-01-09T16:31:38.395Z,46.42
2019-01-09T16:34:05.165Z,40.00
2019-01-09T16:36:31.963Z,39.60
2019-01-09T16:38:58.798Z,31.10
2019-01-09T16:41:25.737Z,31.60
2019-01-09T16:43:52.547Z,40.63
2019-01-09T16:46:19.259Z,41.73
2019-01-09T16:48:46.056Z,36.20
2019-01-09T16:51:12.918Z,34.27
2019-01-09T16:53:39.764Z,31.50
2019-01-09T16:56:08.410Z,50.20
2019-01-09T16:58:34.872Z,43.83
2019-01-09T17:01:02.222Z,44.70
2019-01-09T17:03:29.105Z,43.05
2019-01-09T17:05:56.044Z,23.00
2019-01-09T17:08:22.840Z,14.00
2019-01-09T17:10:49.680Z,12.00
2019-01-09T17:13:16.637Z,13.72
2019-01-09T17:15:43.916Z,17.57
2019-01-09T17:18:10.761Z,15.23
2019-01-09T17:20:37.539Z,20.50
2019-01-09T17:23:04.399Z,13.43
2019-01-09T17:25:31.276Z,13.80
2019-01-09T17:27:59.582Z,15.18
2019-01-09T17:30:26.737Z,14.45
2019-01-09T17:32:53.691Z,18.10
2019-01-09T17:35:23.677Z,19.05
2019-01-09T17:37:50.512Z,22.15
2019-01-09T17:40:17.173Z,20.48
2019-01-09T17:42:44.037Z,19.07
2019-01-09T17:45:10.894Z,14.60
2019-01-09T17:47:37.868Z,14.75
2019-01-09T17:50:04.716Z,13.90
2019-01-09T17:52:31.582Z,12.80
2019-01-09T17:54:58.463Z,12.20
2019-01-09T17:57:32.186Z,13.30
2019-01-09T17:59:59.047Z,10.82
2019-01-09T18:02:26.015Z,10.70
2019-01-09T18:04:53.278Z,12.40
2019-01-09T18:07:20.003Z,11.60
2019-01-09T18:09:47.112Z,11.55
2019-01-09T18:12:14.080Z,11.12
2019-01-09T18:14:41.143Z,11.70
2019-01-09T18:17:07.944Z,11.70
2019-01-09T18:19:34.975Z,12.73
2019-01-09T18:22:02.160Z,15.70
2019-01-09T18:24:29.526Z,14.50
2019-01-09T18:26:58.039Z,12.07
2019-01-09T18:29:25.084Z,12.73
2019-01-09T18:31:51.767Z,11.35
2019-01-09T18:34:18.698Z,13.30
2019-01-09T18:36:45.587Z,12.23
2019-01-09T18:39:12.545Z,13.22
2019-01-09T18:41:39.300Z,12.60
2019-01-09T18:44:06.592Z,10.82
2019-01-09T18:46:33.557Z,10.32
2019-01-09T18:49:01.210Z,11.12
2019-01-09T18:51:28.208Z,12.15
2019-01-09T18:53:55.141Z,14.93
2019-01-09T18:56:22.041Z,15.80
2019-01-09T18:58:49.384Z,13.40
2019-01-09T19:01:16.185Z,13.15
2019-01-09T19:03:43.265Z,14.10
2019-01-09T19:06:10.204Z,12.05
2019-01-09T19:08:37.185Z,16.90
2019-01-09T19:11:07.753Z,19.50
2019-01-09T19:13:32.625Z,31.80
2019-01-09T19:16:03.685Z,24.10
2019-01-09T19:18:27.985Z,26.33
2019-01-09T19:20:54.680Z,27.93
2019-01-09T19:23:21.538Z,56.05
2019-01-09T19:25:48.318Z,26.12
2019-01-09T19:28:15.178Z,22.37
2019-01-09T19:30:42.659Z,24.02
2019-01-09T19:33:09.512Z,21.33
2019-01-09T19:35:36.693Z,23.80
2019-01-09T19:38:09.752Z,22.70
2019-01-09T19:40:36.653Z,18.92
2019-01-09T19:43:03.692Z,21.65
2019-01-09T19:45:30.893Z,20.00
2019-01-09T19:47:57.972Z,22.30
2019-01-09T19:50:25.231Z,22.85
2019-01-09T19:52:51.992Z,33.92
2019-01-09T19:55:18.871Z,24.52
2019-01-09T19:57:45.810Z,17.17
2019-01-09T20:00:12.709Z,19.92
2019-01-09T20:02:39.562Z,18.15
2019-01-09T20:05:06.801Z,18.70
2019-01-09T20:07:33.503Z,17.62
2019-01-09T20:10:00.300Z,21.30
2019-01-09T20:12:27.342Z,26.20
2019-01-09T20:14:54.283Z,32.88
2019-01-09T20:17:21.266Z,33.70
2019-01-09T20:19:48.500Z,31.02
2019-01-09T20:22:15.302Z,21.15
2019-01-09T20:24:42.221Z,24.95
2019-01-09T20:27:09.042Z,21.17
2019-01-09T20:29:35.810Z,22.02
2019-01-09T20:32:02.566Z,25.52
2019-01-09T20:34:29.528Z,31.73
2019-01-09T20:36:56.264Z,32.50
2019-01-09T20:39:23.241Z,26.23
2019-01-09T20:41:49.993Z,17.87
2019-01-09T20:44:19.658Z,15.30
2019-01-09T20:46:46.633Z,13.48
2019-01-09T20:49:13.624Z,16.12
2019-01-09T20:51:40.440Z,16.15
2019-01-09T20:54:09.292Z,17.55
2019-01-09T20:56:35.870Z,13.80
2019-01-09T20:59:03.155Z,16.27
2019-01-09T21:01:30.262Z,14.30
2019-01-09T21:03:57.329Z,16.42
2019-01-09T21:06:24.184Z,20.05
2019-01-09T21:08:59.277Z,25.88
2019-01-09T21:11:19.504Z,26.97
2019-01-09T21:13:46.101Z,28.98
2019-01-09T21:16:12.984Z,30.27
2019-01-09T21:18:39.834Z,34.98
2019-01-09T21:21:06.787Z,32.50
2019-01-09T21:23:33.660Z,28.62
2019-01-09T21:26:00.433Z,29.72
2019-01-09T21:28:27.082Z,27.40
2019-01-09T21:30:53.843Z,27.67
2019-01-09T21:33:20.506Z,24.30
2019-01-09T21:35:47.287Z,23.10
2019-01-09T21:38:13.983Z,19.45
2019-01-09T21:40:40.619Z,19.37
2019-01-09T21:43:07.355Z,21.85
2019-01-09T21:45:34.123Z,20.75
2019-01-09T21:48:00.929Z,21.82
2019-01-09T21:50:27.704Z,25.85
2019-01-09T21:52:54.348Z,21.77
2019-01-09T21:55:21.078Z,26.23
2019-01-09T21:57:47.619Z,20.32
2019-01-09T22:00:14.326Z,17.07
2019-01-09T22:02:40.948Z,18.17
2019-01-09T22:05:07.768Z,18.73
2019-01-09T22:07:34.399Z,16.67
2019-01-09T22:10:01.217Z,14.03
2019-01-09T22:12:27.698Z,14.93
2019-01-09T22:14:54.353Z,16.17
2019-01-09T22:17:20.881Z,14.50
2019-01-09T22:19:47.517Z,13.38
2019-01-09T22:22:14.043Z,14.20
2019-01-09T22:24:40.751Z,19.15
2019-01-09T22:27:07.306Z,15.95
2019-01-09T22:29:33.868Z,15.95
2019-01-09T22:32:00.506Z,16.60
2019-01-09T22:34:27.027Z,15.72
2019-01-09T22:36:53.607Z,15.25
2019-01-09T22:39:20.157Z,20.62
2019-01-09T22:41:46.727Z,14.85
2019-01-09T22:44:13.272Z,15.03
2019-01-09T22:46:39.909Z,13.65
2019-01-09T22:49:06.439Z,13.08
2019-01-09T22:51:33.121Z,13.80
2019-01-09T22:53:59.697Z,11.88
2019-01-09T22:56:26.281Z,10.23
2019-01-09T22:58:52.774Z,9.85
2019-01-09T23:01:19.436Z,11.30
2019-01-09T23:03:45.917Z,12.80
2019-01-09T23:06:12.634Z,12.03
2019-01-09T23:08:39.381Z,12.30
2019-01-09T23:11:06.114Z,11.95
2019-01-09T23:13:32.590Z,9.80
2019-01-09T23:15:59.181Z,10.80
2019-01-09T23:18:25.700Z,10.53
2019-01-09T23:20:52.230Z,10.98
2019-01-09T23:23:18.763Z,11.08
2019-01-09T23:25:45.270Z,10.93
2019-01-09T23:28:11.789Z,10.85
2019-01-09T23:30:38.350Z,12.30
2019-01-09T23:33:04.892Z,19.15
2019-01-09T23:35:31.530Z,22.42
2019-01-09T23:37:58.112Z,31.50
2019-01-09T23:40:24.650Z,43.98
2019-01-09T23:42:51.162Z,33.98
2019-01-09T23:45:17.814Z,31.35
2019-01-09T23:47:44.321Z,28.67
2019-01-09T23:50:10.965Z,29.52
2019-01-09T23:52:37.659Z,27.48
2019-01-09T23:55:04.846Z,28.32
2019-01-09T23:57:31.378Z,25.50
2019-01-09T23:59:57.949Z,26.07
